Flight Track Log - Related Links

Times and Time Zones

All times are in EDT time to prevent confusion due to time zone crossing. See the N969Q flight status page for this flight to view local times or setup timezone preferences in your user account.

Time Position Orientation Groundspeed Altitude Reporting Facility
EDT Latitude Longitude Course Direction KTS MPH feet Rate Location/Type
Mon 06:51:58 PM 41.5933 -81.7086 311° West 159 183 6,500  Level Cleveland Center
Mon 06:53:01 PM 41.6225 -81.7597 307° West 168 193 6,500  Level Cleveland Center
Mon 06:54:03 PM 41.6514 -81.8075 309° West 167 192 6,500  Level Cleveland Center
Mon 06:55:05 PM 41.6817 -81.8564 310° West 168 193 6,500  Level Cleveland Center
Mon 06:56:07 PM 41.7169 -81.9131 310° West 169 194 6,500  Level Cleveland Center
Mon 06:57:00 PM 41.6410 -81.8768 311° West  Level Estimated
Mon 06:57:09 PM 41.7481 -81.9606 311° West 168 193 6,500  Level Cleveland Center
Mon 06:58:11 PM 41.7778 -82.0083 310° West 167 192 6,500  Level Cleveland Center
Mon 06:59:13 PM 41.8086 -82.0561 311° West 167 192 6,500  Level Cleveland Center
Mon 07:00:15 PM 41.8389 -82.1033 311° West 167 192 6,500  Level Cleveland Center
Mon 07:01:17 PM 41.8700 -82.1508 311° West 167 192 6,500  Level Cleveland Center
Mon 07:02:19 PM 41.9061 -82.2050 312° West 167 192 6,500  Level Cleveland Center
Mon 07:03:21 PM 41.9369 -82.2525 311° West 167 192 6,500  Level Cleveland Center
Mon 07:04:23 PM 41.9656 -82.3011 308° West 166 191 6,500  Level Cleveland Center
Mon 07:04:42 PM 41.9775 -82.3189 312° West 167 192 6,500  Level Cleveland Center
Mon 07:05:25 PM 41.9939 -82.3539 302° West 167 192 6,500  Level Cleveland Center
Mon 07:05:43 PM 42.0072 -82.3731 313° West 167 192 6,500  Level Cleveland Center
Mon 07:06:28 PM 42.0222 -82.4031 304° West 167 192 6,500  Level Cleveland Center
Mon 07:06:44 PM 42.0331 -82.4214 309° West 168 193 6,500  Level Cleveland Center
Mon 07:07:30 PM 42.0503 -82.4531 306° West 167 192 6,500  Level Cleveland Center
Mon 07:07:45 PM 42.0608 -82.4725 306° West 166 191 6,500  Level Cleveland Center
Mon 07:08:32 PM 42.0783 -82.5031 308° West 167 192 6,500  Level Cleveland Center
Mon 07:08:45 PM 42.0889 -82.5211 308° West 167 192 6,500  Level Cleveland Center
Mon 07:09:34 PM 42.1067 -82.5511 309° West 166 191 6,500  Level Cleveland Center
Mon 07:09:46 PM 42.1169 -82.5697 307° West 166 191 6,500  Level Cleveland Center
Mon 07:10:36 PM 42.1389 -82.6125 305° West 168 193 6,500  Level Cleveland Center
Mon 07:11:11 PM 42.1578 -82.6425 310° West 165 190 6,500  Level Cleveland Center
Mon 07:11:38 PM 42.1669 -82.6619 302° West 166 191 6,500  Level Cleveland Center
Mon 07:12:06 PM 42.1836 -82.6881 311° West 167 192 6,500  Level Cleveland Center
Mon 07:12:39 PM 42.1944 -82.7114 302° West 166 191 6,500  Level Cleveland Center
Mon 07:12:49 PM 42.2019 -82.7242 308° West 167 192 6,500  Level Cleveland Center
Mon 07:13:41 PM 42.2217 -82.7608 306° West 165 190 6,500  Level Cleveland Center
Mon 07:14:07 PM 42.2372 -82.7881 308° West 166 191 6,500  Level Cleveland Center
Mon 07:14:43 PM 42.2492 -82.8103 306° West 166 191 6,500  Level Cleveland Center
Mon 07:14:50 PM 42.2578 -82.8217 316° Northwest 166 191 6,500  Level Cleveland Center
Mon 07:15:51 PM 42.2872 -82.8764 306° West 167 192 6,500  Level Cleveland Center
Mon 07:16:47 PM 42.3100 -82.9197 305° West 166 191 6,500  Level Cleveland Center
Mon 07:16:52 PM 42.3150 -82.9253 321° Northwest 166 191 6,500  Level Cleveland Center
Mon 07:17:49 PM 42.3375 -82.9694 305° West 166 191 6,500  Level Cleveland Center
Mon 07:17:53 PM 42.3428 -82.9742 327° Northwest 166 191 6,500  Level Cleveland Center
Mon 07:18:59 PM 42.3744 -83.0264 309° West 166 191 6,500  Level Cleveland Center
Mon 07:19:53 PM 42.3964 -83.0644 308° West 166 191 6,500  Level Cleveland Center
Mon 07:19:54 PM 42.4006 -83.0725 305° West 166 191 6,500  Level Cleveland Center
Mon 07:20:49 PM 42.4283 -83.1186 309° West 166 191 6,500  Level Cleveland Center
Mon 07:20:55 PM 42.4250 -83.1133 131° Southeast 166 191 6,500  Level Cleveland Center
Mon 07:21:50 PM 42.4581 -83.1681 309° West 166 191 6,500  Level Cleveland Center
Mon 07:21:57 PM 42.4592 -83.1725 289° West 167 192 6,500  Level Cleveland Center
Mon 07:22:51 PM 42.4878 -83.2175 311° West 166 191 6,500  Level Cleveland Center
Mon 07:22:58 PM 42.4878 -83.2203 270° West 165 190 6,500 -91 Level Cleveland Center
Mon 07:23:57 PM 42.5172 -83.2725 307° West 168 193 6,400 -97 Descending Cleveland Center
Mon 07:24:00 PM 42.5161 -83.2694 116° Southeast 166 191 6,400 -197 Level Cleveland Center
Mon 07:24:58 PM 42.5469 -83.3219 309° West 177 204 6,200 -194 Descending Cleveland Center
Mon 07:25:02 PM 42.5464 -83.3211 132° Southeast 174 200 6,200 -885 Level Cleveland Center
Mon 07:25:59 PM 42.5842 -83.3811 311° West 189 217 5,300 -774 Descending Cleveland Center
Mon 07:26:04 PM 42.5789 -83.3750 140° Southeast 182 209 5,400 -537 Climbing Cleveland Center
Mon 07:27:06 PM 42.6131 -83.4283 311° West 187 215 4,700 -615 Descending Cleveland Center
Mon 07:28:01 PM 42.6514 -83.4872 312° West 185 213 4,200 -484 Descending Cleveland Center
Mon 07:28:08 PM 42.6528 -83.4917 293° West 186 214 4,200 -885 Level Cleveland Center
Mon 07:29:02 PM 42.6828 -83.5428 309° West 190 219 3,300 -984 Descending Cleveland Center
Mon 07:29:09 PM 42.6853 -83.5483 301° West 188 216 3,200 -522 Descending Cleveland Center
Mon 07:30:11 PM 42.7200 -83.6086 308° West 190 219 2,700 -484 Descending Cleveland Center
Mon 07:32:00 PM 42.7592 -83.6994 300° West  Level FlightAware Approximate
Mon 07:39:00 PM 42.8000 -83.7667 270° West  Level FlightAware Approximate
Mon 07:40:00 PM 42.8076 -83.7695 270° West  Level Estimated

Login

Don't have an account? Register now (free) for customized features, flight alerts, and more!